To NAV CANADA Home Page Login to a new session Search on AWWS site Feedback and Comments Disclaimer Vers la page française équivalente Tips FAQ What's new on the site To the Forecasts and Observations / NOTAM section To "File a Flight Plan" website Publications and other links Update of the User's profile FIC Telephone Numbers My Weather Data Folder Route Weather Data Regional Weather Data Local Weather Data To the Forecasts and Observations / NOTAM section
Request Generated 04/20/2014 at 00:37:22 UTC . Weather information available at that time is displayed.

METAR/TAF

MONTREAL/PIERRE-ELLIOTT-TRUDEAU INTL/QC    

METAR CYUL 200000Z 35007KT 15SM FEW240 08/M11 A3039 RMK CI2 SLP290=
METAR CYUL 192300Z 34008KT 30SM FEW060 FEW240 10/M11 A3037 RMK SC1CI2
SC TR SLP285=
METAR CYUL 192200Z 32013KT 30SM FEW060 FEW240 10/M10 A3036 RMK SC1CI1
SC TR SLP281=

TAF CYUL 192338Z 2000/2024 34008KT P6SM FEW060
BECMG 2006/2008 05008KT
FM201100 06008KT P6SM BKN130 OVC200
BECMG 2014/2016 10008KT
FM202000 14006KT P6SM OVC110
RMK NXT FCST BY 200300Z=
Your time UTC time
Weather data provided by Environment Canada and NAV CANADA